createdAt,value
2018-09-26T00:01:46.676Z,2.97
2018-09-26T00:04:20.687Z,2.70
2018-09-26T00:06:49.350Z,3.20
2018-09-26T00:09:18.107Z,2.50
2018-09-26T00:11:46.944Z,2.77
2018-09-26T00:14:15.658Z,2.83
2018-09-26T00:16:44.283Z,2.90
2018-09-26T00:19:13.101Z,2.83
2018-09-26T00:21:41.897Z,2.50
2018-09-26T00:24:10.834Z,2.70
2018-09-26T00:26:39.459Z,2.50
2018-09-26T00:29:08.128Z,2.57
2018-09-26T00:31:36.841Z,2.67
2018-09-26T00:34:05.453Z,3.10
2018-09-26T00:36:34.069Z,2.80
2018-09-26T00:39:02.764Z,3.07
2018-09-26T00:41:31.434Z,2.70
2018-09-26T00:44:00.176Z,2.80
2018-09-26T00:46:28.822Z,2.40
2018-09-26T00:48:57.580Z,2.77
2018-09-26T00:51:26.240Z,2.70
2018-09-26T00:53:54.928Z,2.60
2018-09-26T00:56:24.826Z,3.37
2018-09-26T00:58:53.932Z,2.53
2018-09-26T01:01:22.594Z,2.67
2018-09-26T01:03:51.329Z,2.80
2018-09-26T01:06:20.158Z,3.03
2018-09-26T01:08:49.195Z,3.00
2018-09-26T01:11:18.225Z,3.10
2018-09-26T01:13:46.997Z,3.00
2018-09-26T01:16:15.660Z,2.60
2018-09-26T01:18:44.523Z,2.90
2018-09-26T01:21:13.297Z,3.30
2018-09-26T01:23:42.098Z,3.23
2018-09-26T01:26:10.838Z,3.30
2018-09-26T01:28:39.518Z,3.00
2018-09-26T01:31:08.294Z,3.50
2018-09-26T01:33:37.004Z,3.77
2018-09-26T01:36:05.759Z,3.30
2018-09-26T01:38:34.498Z,3.80
2018-09-26T01:41:03.229Z,3.43
2018-09-26T01:43:31.877Z,3.53
2018-09-26T01:46:00.539Z,3.87
2018-09-26T01:48:29.327Z,4.03
2018-09-26T01:50:58.016Z,3.83
2018-09-26T01:53:26.663Z,4.60
2018-09-26T01:55:55.309Z,4.20
2018-09-26T01:58:24.045Z,4.50
2018-09-26T02:00:52.691Z,4.97
2018-09-26T02:03:21.367Z,4.73
2018-09-26T02:05:50.009Z,4.77
2018-09-26T02:08:18.671Z,4.83
2018-09-26T02:10:47.331Z,5.13
2018-09-26T02:13:16.052Z,5.57
2018-09-26T02:15:44.704Z,5.73
2018-09-26T02:18:13.438Z,6.23
2018-09-26T02:20:42.116Z,5.43
2018-09-26T02:23:10.824Z,5.67
2018-09-26T02:25:39.465Z,5.40
2018-09-26T02:28:08.086Z,6.00
2018-09-26T02:30:36.756Z,5.47
2018-09-26T02:33:05.386Z,5.23
2018-09-26T02:35:33.994Z,6.30
2018-09-26T02:38:02.624Z,5.97
2018-09-26T02:40:31.458Z,6.00
2018-09-26T02:43:00.097Z,6.47
2018-09-26T02:45:28.725Z,6.20
2018-09-26T02:47:57.450Z,6.33
2018-09-26T02:50:26.138Z,6.37
2018-09-26T02:52:54.907Z,6.27
2018-09-26T02:55:23.840Z,6.50
2018-09-26T02:57:52.474Z,6.20
2018-09-26T03:00:21.287Z,6.67
2018-09-26T03:02:49.952Z,7.10
2018-09-26T03:05:18.654Z,6.87
2018-09-26T03:07:47.561Z,7.47
2018-09-26T03:10:16.397Z,7.00
2018-09-26T03:12:45.039Z,7.20
2018-09-26T03:15:13.678Z,7.57
2018-09-26T03:17:42.453Z,7.23
2018-09-26T03:20:11.437Z,6.80
2018-09-26T03:22:40.495Z,7.40
2018-09-26T03:25:09.288Z,7.53
2018-09-26T03:27:37.926Z,8.33
2018-09-26T03:30:06.686Z,7.43
2018-09-26T03:32:35.355Z,8.03
2018-09-26T03:35:03.973Z,7.70
2018-09-26T03:37:39.302Z,8.13
2018-09-26T03:40:07.959Z,8.13
2018-09-26T03:42:36.595Z,8.63
2018-09-26T03:45:06.540Z,7.60
2018-09-26T03:47:35.211Z,7.93
2018-09-26T03:50:03.916Z,8.17
2018-09-26T03:52:32.503Z,7.90
2018-09-26T03:55:01.106Z,7.73
2018-09-26T03:57:29.719Z,8.27
2018-09-26T03:59:58.372Z,8.73
2018-09-26T04:02:27.287Z,8.60
2018-09-26T04:04:56.047Z,8.57
2018-09-26T04:07:24.679Z,8.80
2018-09-26T04:09:53.343Z,8.40
2018-09-26T04:12:22.014Z,8.73
2018-09-26T04:14:50.660Z,8.73
2018-09-26T04:17:19.300Z,8.60
2018-09-26T04:19:47.944Z,8.17
2018-09-26T04:22:16.606Z,8.80
2018-09-26T04:24:45.264Z,9.00
2018-09-26T04:27:13.933Z,8.87
2018-09-26T04:29:42.612Z,9.00
2018-09-26T04:32:11.343Z,8.77
2018-09-26T04:34:40.115Z,8.73
2018-09-26T04:37:08.977Z,8.70
2018-09-26T04:39:37.631Z,8.97
2018-09-26T04:42:06.375Z,8.70
2018-09-26T04:44:35.031Z,9.17
2018-09-26T04:47:03.781Z,9.67
2018-09-26T04:49:32.469Z,9.07
2018-09-26T04:52:01.159Z,9.07
2018-09-26T04:54:29.765Z,8.83
2018-09-26T04:56:58.439Z,9.23
2018-09-26T04:59:27.133Z,9.07
2018-09-26T05:01:55.803Z,9.00
2018-09-26T05:04:24.594Z,9.50
2018-09-26T05:06:53.350Z,8.77
2018-09-26T05:09:21.996Z,8.33
2018-09-26T05:11:50.628Z,8.67
2018-09-26T05:14:19.266Z,8.33
2018-09-26T05:16:47.938Z,9.07
2018-09-26T05:19:16.607Z,8.87
2018-09-26T05:21:45.241Z,8.70
2018-09-26T05:24:13.913Z,8.57
2018-09-26T05:26:42.536Z,7.90
2018-09-26T05:29:11.206Z,9.23
2018-09-26T05:31:39.817Z,8.37
2018-09-26T05:34:08.679Z,9.33
2018-09-26T05:36:37.478Z,8.70
2018-09-26T05:39:08.411Z,8.50
2018-09-26T05:41:37.130Z,7.70
2018-09-26T05:44:05.917Z,8.80
2018-09-26T05:46:34.616Z,8.63
2018-09-26T05:49:03.251Z,7.97
2018-09-26T05:51:31.907Z,8.00
2018-09-26T05:54:00.545Z,8.27
2018-09-26T05:56:29.196Z,8.73
2018-09-26T05:58:58.190Z,7.93
2018-09-26T06:01:26.948Z,7.60
2018-09-26T06:03:55.697Z,7.10
2018-09-26T06:06:24.470Z,7.10
2018-09-26T06:08:53.173Z,7.37
2018-09-26T06:11:21.851Z,7.40
2018-09-26T06:13:50.947Z,6.93
2018-09-26T06:16:19.592Z,6.90
2018-09-26T06:18:48.216Z,6.97
2018-09-26T06:21:17.229Z,6.87
2018-09-26T06:23:45.876Z,6.70
2018-09-26T06:26:14.507Z,6.73
2018-09-26T06:28:43.143Z,6.73
2018-09-26T06:31:11.800Z,6.93
2018-09-26T06:33:40.417Z,6.33
2018-09-26T06:36:09.079Z,6.37
2018-09-26T06:38:37.787Z,6.67
2018-09-26T06:41:06.439Z,6.07
2018-09-26T06:43:35.075Z,6.20
2018-09-26T06:46:03.715Z,6.23
2018-09-26T06:48:32.432Z,6.00
2018-09-26T06:51:01.096Z,5.73
2018-09-26T06:53:29.777Z,5.83
2018-09-26T06:55:58.464Z,6.03
2018-09-26T06:58:27.076Z,5.73
2018-09-26T07:00:55.736Z,5.80
2018-09-26T07:03:24.402Z,5.30
2018-09-26T07:05:53.117Z,5.10
2018-09-26T07:08:21.847Z,5.40
2018-09-26T07:10:50.613Z,5.67
2018-09-26T07:13:19.270Z,6.20
2018-09-26T07:15:47.949Z,5.90
2018-09-26T07:18:16.570Z,5.23
2018-09-26T07:20:45.279Z,6.03
2018-09-26T07:23:13.999Z,5.30
2018-09-26T07:25:42.660Z,4.90
2018-09-26T07:28:11.328Z,5.17
2018-09-26T07:30:40.074Z,5.53
2018-09-26T07:33:08.789Z,4.63
2018-09-26T07:35:37.418Z,4.70
2018-09-26T07:38:06.120Z,4.07
2018-09-26T07:40:34.768Z,5.30
2018-09-26T07:43:03.614Z,5.80
2018-09-26T07:45:32.362Z,4.87
2018-09-26T07:48:00.986Z,4.63
2018-09-26T07:50:29.729Z,4.10
2018-09-26T07:52:58.383Z,4.33
2018-09-26T07:55:27.095Z,4.23
2018-09-26T07:57:55.705Z,4.57
2018-09-26T08:00:24.771Z,4.17
2018-09-26T08:02:53.424Z,5.20
2018-09-26T08:05:22.147Z,4.67
2018-09-26T08:07:50.959Z,3.97
2018-09-26T08:10:19.597Z,4.23
2018-09-26T08:12:48.359Z,4.40
2018-09-26T08:15:17.006Z,4.57
2018-09-26T08:17:45.668Z,4.27
2018-09-26T08:20:14.846Z,3.90
2018-09-26T08:22:43.462Z,3.77
2018-09-26T08:25:12.188Z,3.77
2018-09-26T08:27:41.299Z,4.67
2018-09-26T08:30:09.958Z,4.00
2018-09-26T08:32:38.848Z,3.90
2018-09-26T08:35:07.522Z,3.70
2018-09-26T08:37:36.210Z,3.90
2018-09-26T08:40:04.984Z,4.00
2018-09-26T08:42:33.678Z,4.60
2018-09-26T08:45:02.406Z,4.37
2018-09-26T08:47:31.092Z,5.07
2018-09-26T08:49:59.748Z,5.00
2018-09-26T08:52:28.556Z,5.07
2018-09-26T08:54:57.209Z,4.80
2018-09-26T08:57:26.017Z,5.70
2018-09-26T08:59:54.691Z,5.20
2018-09-26T09:02:23.326Z,5.10
2018-09-26T09:04:52.045Z,5.30
2018-09-26T09:07:20.823Z,5.47
2018-09-26T09:09:49.505Z,5.10
2018-09-26T09:12:18.118Z,5.30
2018-09-26T09:14:46.887Z,5.53
2018-09-26T09:17:15.479Z,5.70
2018-09-26T09:19:44.227Z,5.77
2018-09-26T09:22:13.101Z,5.70
2018-09-26T09:24:41.781Z,5.83
2018-09-26T09:27:10.701Z,5.90
2018-09-26T09:29:39.586Z,5.30
2018-09-26T09:32:08.203Z,6.00
2018-09-26T09:34:37.250Z,6.13
2018-09-26T09:37:05.936Z,5.80
2018-09-26T09:39:34.562Z,6.23
2018-09-26T09:42:03.228Z,5.43
2018-09-26T09:44:31.954Z,5.77
2018-09-26T09:47:00.627Z,6.10
2018-09-26T09:49:29.258Z,6.07
2018-09-26T09:51:57.979Z,6.70
2018-09-26T09:54:26.715Z,6.00
2018-09-26T09:56:55.522Z,6.17
2018-09-26T09:59:24.174Z,6.37
2018-09-26T10:01:52.863Z,6.27
2018-09-26T10:04:21.656Z,6.10
2018-09-26T10:06:50.339Z,5.80
2018-09-26T10:09:19.046Z,6.20
2018-09-26T10:11:47.811Z,6.57
2018-09-26T10:14:16.493Z,5.80
2018-09-26T10:16:45.254Z,5.50
2018-09-26T10:19:13.905Z,5.80
2018-09-26T10:21:42.598Z,5.83
2018-09-26T10:24:11.568Z,5.90
2018-09-26T10:26:40.346Z,5.87
2018-09-26T10:29:09.099Z,5.80
2018-09-26T10:31:37.745Z,6.00
2018-09-26T10:34:06.405Z,5.80
2018-09-26T10:36:35.075Z,5.43
2018-09-26T10:39:04.236Z,6.67
2018-09-26T10:41:32.985Z,6.47
2018-09-26T10:44:01.668Z,6.20
2018-09-26T10:46:30.373Z,5.70
2018-09-26T10:49:00.594Z,6.00
2018-09-26T10:51:29.237Z,5.97
2018-09-26T10:53:57.913Z,6.20
2018-09-26T10:56:26.864Z,5.80
2018-09-26T10:58:55.381Z,5.33
2018-09-26T11:01:24.179Z,6.33
2018-09-26T11:03:53.097Z,6.03
2018-09-26T11:06:22.087Z,5.67
2018-09-26T11:08:51.004Z,5.97
2018-09-26T11:11:19.742Z,5.83
2018-09-26T11:13:48.530Z,5.70
2018-09-26T11:16:17.732Z,6.00
2018-09-26T11:18:46.514Z,5.57
2018-09-26T11:21:15.327Z,6.60
2018-09-26T11:23:44.140Z,6.33
2018-09-26T11:26:12.955Z,6.30
2018-09-26T11:28:42.080Z,6.07
2018-09-26T11:31:10.851Z,5.90
2018-09-26T11:33:40.094Z,6.97
2018-09-26T11:36:08.816Z,6.20
2018-09-26T11:38:37.570Z,6.23
2018-09-26T11:41:06.392Z,6.63
2018-09-26T11:43:35.189Z,5.83
2018-09-26T11:46:04.035Z,6.10
2018-09-26T11:48:32.832Z,6.00
2018-09-26T11:51:02.516Z,6.00
2018-09-26T11:53:31.306Z,5.73
2018-09-26T11:56:00.147Z,5.77
2018-09-26T11:58:28.802Z,6.10
2018-09-26T12:00:57.520Z,5.90
2018-09-26T12:03:26.295Z,5.40
2018-09-26T12:05:55.114Z,5.50
2018-09-26T12:08:24.174Z,5.43
2018-09-26T12:10:52.963Z,5.17
2018-09-26T12:13:21.852Z,6.13
2018-09-26T12:15:51.145Z,5.27
2018-09-26T12:18:19.950Z,5.60
2018-09-26T12:20:48.661Z,5.07
2018-09-26T12:23:17.490Z,5.00
2018-09-26T12:25:46.217Z,5.83
2018-09-26T12:28:14.888Z,5.60
2018-09-26T12:30:43.541Z,4.73
2018-09-26T12:33:13.413Z,5.73
2018-09-26T12:35:42.334Z,5.20
2018-09-26T12:38:10.975Z,5.00
2018-09-26T12:40:39.649Z,4.60
2018-09-26T12:43:08.271Z,5.00
2018-09-26T12:45:36.960Z,5.73
2018-09-26T12:48:05.982Z,4.90
2018-09-26T12:50:34.731Z,5.47
2018-09-26T12:53:03.525Z,5.40
2018-09-26T12:55:32.222Z,5.13
2018-09-26T12:58:00.942Z,5.30
2018-09-26T13:00:29.914Z,5.37
2018-09-26T13:02:58.548Z,5.53
2018-09-26T13:05:27.519Z,5.17
2018-09-26T13:07:56.151Z,5.30
2018-09-26T13:10:24.974Z,5.90
2018-09-26T13:12:53.659Z,5.00
2018-09-26T13:15:22.497Z,5.80
2018-09-26T13:17:51.221Z,5.47
2018-09-26T13:20:19.990Z,4.93
2018-09-26T13:22:48.544Z,5.33
2018-09-26T13:25:17.307Z,5.77
2018-09-26T13:27:45.967Z,5.30
2018-09-26T13:30:14.701Z,4.90
2018-09-26T13:32:43.380Z,5.53
2018-09-26T13:35:12.136Z,5.97
2018-09-26T13:37:40.790Z,5.67
2018-09-26T13:40:09.508Z,5.30
2018-09-26T13:42:38.217Z,5.80
2018-09-26T13:45:06.892Z,5.63
2018-09-26T13:47:35.582Z,5.50
2018-09-26T13:50:04.514Z,5.60
2018-09-26T13:52:33.270Z,5.80
2018-09-26T13:55:01.926Z,5.10
2018-09-26T13:57:30.591Z,5.60
2018-09-26T13:59:59.236Z,6.20
2018-09-26T14:02:27.887Z,6.17
2018-09-26T14:04:56.533Z,6.40
2018-09-26T14:07:25.305Z,5.83
2018-09-26T14:09:54.003Z,6.27
2018-09-26T14:12:22.809Z,5.90
2018-09-26T14:14:51.440Z,6.33
2018-09-26T14:17:20.240Z,6.10
2018-09-26T14:19:48.870Z,6.47
2018-09-26T14:22:17.651Z,5.63
2018-09-26T14:24:46.335Z,6.07
2018-09-26T14:27:15.113Z,5.83
2018-09-26T14:29:43.810Z,5.77
2018-09-26T14:32:12.590Z,5.43
2018-09-26T14:34:41.470Z,6.00
2018-09-26T14:37:10.438Z,5.90
2018-09-26T14:39:39.234Z,5.73
2018-09-26T14:42:07.957Z,5.47
2018-09-26T14:44:36.692Z,5.83
2018-09-26T14:47:05.453Z,5.53
2018-09-26T14:49:34.064Z,5.23
2018-09-26T14:52:02.745Z,5.50
2018-09-26T14:54:31.464Z,6.30
2018-09-26T14:57:00.180Z,5.57
2018-09-26T14:59:28.961Z,4.97
2018-09-26T15:01:57.739Z,5.47
2018-09-26T15:04:26.670Z,5.10
2018-09-26T15:06:55.387Z,5.40
2018-09-26T15:09:24.195Z,5.60
2018-09-26T15:11:52.845Z,5.60
2018-09-26T15:14:21.625Z,5.20
2018-09-26T15:16:50.207Z,5.60
2018-09-26T15:19:18.882Z,4.27
2018-09-26T15:21:47.693Z,4.80
2018-09-26T15:24:16.620Z,4.93
2018-09-26T15:26:45.663Z,5.07
2018-09-26T15:29:14.531Z,5.30
2018-09-26T15:31:43.301Z,5.20
2018-09-26T15:34:12.051Z,4.80
2018-09-26T15:36:40.757Z,4.57
2018-09-26T15:39:10.503Z,4.50
2018-09-26T15:41:39.632Z,4.57
2018-09-26T15:44:08.576Z,4.87
2018-09-26T15:46:37.554Z,5.13
2018-09-26T15:49:06.731Z,5.03
2018-09-26T15:51:35.920Z,4.70
2018-09-26T15:54:04.579Z,4.67
2018-09-26T15:56:33.247Z,4.00
2018-09-26T15:59:02.078Z,4.17
2018-09-26T16:01:31.122Z,4.37
2018-09-26T16:03:59.791Z,4.43
2018-09-26T16:06:28.566Z,4.47
2018-09-26T16:08:57.431Z,3.80
2018-09-26T16:11:26.114Z,4.53
2018-09-26T16:13:55.170Z,4.27
2018-09-26T16:16:24.247Z,4.13
2018-09-26T16:18:52.838Z,4.20
2018-09-26T16:21:21.514Z,4.60
2018-09-26T16:23:50.394Z,4.03
2018-09-26T16:26:19.108Z,4.57
2018-09-26T16:28:47.896Z,4.77
2018-09-26T16:31:16.802Z,4.40
2018-09-26T16:33:45.610Z,4.27
2018-09-26T16:36:14.335Z,4.53
2018-09-26T16:38:43.012Z,4.20
2018-09-26T16:41:11.683Z,4.50
2018-09-26T16:43:40.397Z,3.90
2018-09-26T16:46:09.114Z,4.23
2018-09-26T16:48:38.013Z,3.83
2018-09-26T16:51:06.980Z,4.00
2018-09-26T16:53:35.729Z,4.40
2018-09-26T16:56:04.396Z,4.30
2018-09-26T16:58:33.204Z,4.13
2018-09-26T17:01:01.936Z,5.13
2018-09-26T17:03:30.658Z,5.20
2018-09-26T17:05:59.472Z,5.33
2018-09-26T17:08:28.140Z,4.47
2018-09-26T17:10:56.879Z,5.73
2018-09-26T17:13:25.592Z,5.53
2018-09-26T17:15:54.274Z,5.43
2018-09-26T17:18:23.210Z,5.70
2018-09-26T17:20:51.876Z,5.67
2018-09-26T17:23:20.888Z,5.23
2018-09-26T17:25:49.878Z,5.00
2018-09-26T17:28:19.055Z,5.50
2018-09-26T17:30:48.176Z,5.83
2018-09-26T17:33:17.123Z,5.70
2018-09-26T17:35:45.900Z,6.17
2018-09-26T17:38:14.632Z,5.73
2018-09-26T17:40:43.351Z,6.00
2018-09-26T17:43:12.148Z,6.37
2018-09-26T17:45:40.889Z,6.37
2018-09-26T17:48:09.605Z,6.57
2018-09-26T17:50:38.577Z,7.23
2018-09-26T17:53:07.299Z,7.20
2018-09-26T17:55:35.977Z,6.67
2018-09-26T17:58:04.772Z,6.67
2018-09-26T18:00:33.587Z,7.20
2018-09-26T18:03:02.357Z,6.80
2018-09-26T18:05:31.265Z,7.03
2018-09-26T18:07:59.970Z,6.43
2018-09-26T18:10:28.650Z,6.70
2018-09-26T18:12:57.362Z,6.90
2018-09-26T18:15:26.052Z,6.90
2018-09-26T18:17:55.034Z,6.53
2018-09-26T18:20:24.154Z,6.80
2018-09-26T18:22:53.031Z,7.00
2018-09-26T18:25:21.885Z,7.20
2018-09-26T18:27:50.895Z,6.97
2018-09-26T18:30:19.561Z,6.63
2018-09-26T18:32:48.495Z,6.90
2018-09-26T18:35:18.088Z,7.20
2018-09-26T18:37:47.181Z,7.03
2018-09-26T18:40:16.032Z,6.70
2018-09-26T18:42:45.042Z,6.70
2018-09-26T18:45:14.828Z,6.87
2018-09-26T18:47:43.954Z,6.70
2018-09-26T18:50:12.679Z,6.07
2018-09-26T18:52:41.790Z,6.23
2018-09-26T18:55:10.458Z,5.13
2018-09-26T18:57:39.124Z,5.10
2018-09-26T19:00:08.460Z,5.03
2018-09-26T19:02:37.136Z,5.20
2018-09-26T19:05:05.985Z,5.17
2018-09-26T19:07:34.657Z,5.63
2018-09-26T19:10:03.373Z,5.27
2018-09-26T19:12:32.280Z,5.43
2018-09-26T19:15:00.971Z,5.90
2018-09-26T19:17:29.837Z,5.50
2018-09-26T19:19:58.524Z,5.90
2018-09-26T19:22:27.415Z,5.50
2018-09-26T19:24:56.105Z,5.30
2018-09-26T19:27:24.906Z,5.43
2018-09-26T19:29:53.973Z,5.90
2018-09-26T19:32:22.719Z,5.47
2018-09-26T19:34:51.654Z,5.07
2018-09-26T19:37:20.349Z,5.63
2018-09-26T19:39:49.085Z,4.83
2018-09-26T19:42:17.732Z,4.90
2018-09-26T19:44:46.602Z,5.20
2018-09-26T19:47:15.731Z,5.03
2018-09-26T19:49:44.437Z,5.10
2018-09-26T19:52:13.184Z,4.80
2018-09-26T19:54:42.023Z,4.37
2018-09-26T19:57:10.849Z,4.50
2018-09-26T19:59:39.754Z,4.60
2018-09-26T20:02:08.619Z,4.63
2018-09-26T20:04:37.282Z,4.43
2018-09-26T20:07:06.189Z,4.77
2018-09-26T20:09:35.235Z,3.90
2018-09-26T20:12:04.157Z,4.30
2018-09-26T20:14:32.997Z,4.10
2018-09-26T20:17:01.677Z,4.07
2018-09-26T20:19:30.722Z,4.40
2018-09-26T20:21:59.592Z,4.23
2018-09-26T20:24:28.354Z,3.60
2018-09-26T20:26:57.251Z,3.63
2018-09-26T20:29:25.976Z,4.00
2018-09-26T20:31:54.598Z,4.00
2018-09-26T20:34:23.432Z,3.60
2018-09-26T20:36:52.175Z,3.70
2018-09-26T20:39:20.958Z,3.50
2018-09-26T20:41:49.683Z,3.70
2018-09-26T20:44:18.369Z,3.37
2018-09-26T20:46:47.087Z,3.77
2018-09-26T20:49:15.721Z,3.30
2018-09-26T20:51:44.610Z,3.37
2018-09-26T20:54:13.281Z,3.50
2018-09-26T20:56:42.317Z,3.30
2018-09-26T20:59:11.024Z,3.17
2018-09-26T21:01:39.823Z,3.53
2018-09-26T21:04:08.569Z,3.57
2018-09-26T21:06:37.520Z,3.57
2018-09-26T21:09:08.137Z,3.30
2018-09-26T21:11:36.987Z,3.97
2018-09-26T21:14:05.796Z,3.03
2018-09-26T21:16:34.488Z,3.43
2018-09-26T21:19:03.355Z,3.30
2018-09-26T21:21:32.085Z,3.43
2018-09-26T21:24:00.993Z,3.27
2018-09-26T21:26:29.716Z,3.50
2018-09-26T21:28:58.557Z,3.20
2018-09-26T21:31:27.267Z,3.03
2018-09-26T21:33:55.989Z,2.70
2018-09-26T21:36:24.681Z,3.20
2018-09-26T21:38:53.562Z,3.20
2018-09-26T21:41:22.137Z,3.67
2018-09-26T21:43:50.872Z,3.00
2018-09-26T21:46:19.515Z,2.73
2018-09-26T21:48:48.195Z,3.17
2018-09-26T21:51:16.868Z,2.47
2018-09-26T21:53:45.534Z,2.33
2018-09-26T21:56:14.196Z,2.57
2018-09-26T21:58:42.863Z,2.67
2018-09-26T22:01:15.168Z,2.50
2018-09-26T22:03:44.098Z,2.40
2018-09-26T22:06:13.346Z,2.60
2018-09-26T22:08:42.487Z,2.30
2018-09-26T22:11:11.313Z,2.73
2018-09-26T22:13:39.979Z,2.73
2018-09-26T22:16:08.681Z,2.23
2018-09-26T22:18:37.359Z,2.17
2018-09-26T22:21:06.004Z,2.30
2018-09-26T22:23:34.780Z,2.27
2018-09-26T22:26:03.420Z,2.40
2018-09-26T22:28:32.106Z,2.40
2018-09-26T22:31:00.912Z,2.10
2018-09-26T22:33:29.783Z,2.43
2018-09-26T22:35:58.929Z,2.30
2018-09-26T22:38:27.624Z,2.40
2018-09-26T22:40:56.227Z,2.27
2018-09-26T22:43:25.050Z,3.03
2018-09-26T22:45:53.696Z,2.67
2018-09-26T22:48:22.336Z,2.60
2018-09-26T22:50:51.022Z,2.67
2018-09-26T22:53:19.844Z,3.03
2018-09-26T22:55:48.496Z,2.80
2018-09-26T22:58:17.369Z,2.80
2018-09-26T23:00:46.057Z,2.70
2018-09-26T23:03:14.902Z,3.07
2018-09-26T23:05:43.519Z,3.03
2018-09-26T23:08:12.297Z,3.03
2018-09-26T23:10:40.995Z,2.80
2018-09-26T23:13:09.576Z,3.43
2018-09-26T23:15:38.259Z,2.73
2018-09-26T23:18:07.157Z,3.13
2018-09-26T23:20:35.851Z,3.07
2018-09-26T23:23:04.579Z,3.47
2018-09-26T23:25:33.213Z,3.53
2018-09-26T23:28:01.825Z,3.13
2018-09-26T23:30:30.646Z,3.33
2018-09-26T23:32:59.443Z,3.37
2018-09-26T23:35:28.067Z,3.33
2018-09-26T23:37:56.763Z,3.00
2018-09-26T23:40:25.458Z,3.37
2018-09-26T23:42:54.262Z,2.90
2018-09-26T23:45:23.102Z,3.10
2018-09-26T23:47:51.880Z,3.20
2018-09-26T23:50:20.494Z,3.17
2018-09-26T23:52:49.169Z,3.43
2018-09-26T23:55:17.894Z,3.63
2018-09-26T23:57:53.225Z,3.80
